KFAT

Fresno Yosemite International Airport

Fresno, California, USA
KFAT 181720Z 1818/1918 VRB04KT P6SM SCT200 FM182100 31012KT P6SM SCT150 BKN200 FM190600 VRB04KT P6SM SCT200
Issued Valid From Valid To
Jul-18 @ 17:20 UTC
(5 hours ago)
Jul-18 @ 18:00 UTC
(4 hours ago)
Jul-19 @ 18:00 UTC
(in 20 hours)
Expired Click to View Jul-18 @ 18:00 to Jul-18 @ 21:00
KFAT 181720Z 1818/1918 VRB04KT P6SM SCT200
Wind Visibility Clouds
Variable at 4 knots Greater than 6 miles
  • Scattered at 20,000' AGL
From Jul-18 @ 21:00 to Jul-19 @ 06:00
FM182100 31012KT P6SM SCT150 BKN200
Wind Visibility Clouds
310° at 12 knots Greater than 6 miles
  • Scattered at 15,000' AGL
  • Broken at 20,000' AGL
From Jul-19 @ 06:00 to Jul-19 @ 18:00
FM190600 VRB04KT P6SM SCT200
Wind Visibility Clouds
Variable at 4 knots Greater than 6 miles
  • Scattered at 20,000' AGL
KFAT 181720Z 1818/1918 VRB04KT P6SM SCT200 FM182100 31012KT P6SM SCT150 BKN200 FM190600 VRB04KT P6SM SCT200
Issued Jul-18 @ 17:20 UTC
(5 hours ago)
Valid From Jul-18 @ 18:00 UTC
(4 hours ago)
Valid To Jul-19 @ 18:00 UTC
(in 20 hours)
Jul-18 @ 18:00 - Jul-18 @ 21:00
Wind Visibility
Variable at 4 knots Greater than 6 miles
Clouds
  • Scattered at 20,000' AGL
From Jul-18 @ 21:00 - Jul-19 @ 06:00
Wind Visibility
310° at 12 knots Greater than 6 miles
Clouds
  • Scattered at 15,000' AGL
  • Broken at 20,000' AGL
From Jul-19 @ 06:00 - Jul-19 @ 18:00
Wind Visibility
Variable at 4 knots Greater than 6 miles
Clouds
  • Scattered at 20,000' AGL